Time;durP1;ratioP1;P1;durP2;ratioP2;P2;SDS_P1;SDS_P2;PMS_P1;PMS_P2;Temp;Humidity;BMP_temperature;BMP_pressure;BME280_temperature;BME280_humidity;BME280_pressure;Samples;Min_cycle;Max_cycle;Signal;HPM_P1;HPM_P2
2022/04/25 00:01:38;;;;;;;17.48;9.68;;;11.60;96.00;;;;;;5034017;28;20060;-76
2022/04/25 00:04:04;;;;;;;18.40;8.70;;;11.70;96.00;;;;;;5033947;28;20045;-77
2022/04/25 00:06:30;;;;;;;20.60;9.63;;;11.60;96.00;;;;;;5033364;28;20076;-76
2022/04/25 00:08:56;;;;;;;18.80;9.18;;;11.50;95.90;;;;;;5033062;28;20053;-76
2022/04/25 00:11:21;;;;;;;20.63;10.15;;;11.40;96.00;;;;;;5017293;28;20103;-76
2022/04/25 00:13:47;;;;;;;18.98;10.73;;;11.30;96.00;;;;;;5017264;28;20046;-76
2022/04/25 00:16:13;;;;;;;19.13;9.52;;;11.30;96.20;;;;;;5033378;28;20048;-76
2022/04/25 00:18:39;;;;;;;21.30;10.10;;;11.30;96.30;;;;;;5033803;28;20077;-76
2022/04/25 00:21:05;;;;;;;24.10;10.23;;;11.20;96.20;;;;;;5033113;28;20119;-76
2022/04/25 00:23:31;;;;;;;24.05;10.38;;;11.40;96.20;;;;;;5017146;28;20061;-76
2022/04/25 00:25:57;;;;;;;24.17;10.85;;;11.40;96.00;;;;;;5033028;28;20042;-76
2022/04/25 00:28:23;;;;;;;20.38;9.73;;;11.30;96.20;;;;;;5033841;28;20037;-76
2022/04/25 00:30:48;;;;;;;16.60;9.77;;;11.40;96.20;;;;;;5033466;28;20094;-76
2022/04/25 00:33:15;;;;;;;19.25;9.57;;;11.40;96.10;;;;;;5033427;28;20160;-76
2022/04/25 00:35:41;;;;;;;19.85;10.63;;;11.60;96.00;;;;;;5033261;28;20084;-76
2022/04/25 00:38:09;;;;;;;16.38;9.32;;;11.70;96.00;;;;;;5033293;28;20050;-76
2022/04/25 00:40:35;;;;;;;23.15;10.32;;;11.80;96.00;;;;;;5033780;28;20061;-76
2022/04/25 00:43:00;;;;;;;23.25;9.90;;;11.90;95.90;;;;;;5032985;28;20057;-76
2022/04/25 00:45:26;;;;;;;19.67;9.00;;;11.80;95.90;;;;;;5033183;28;20052;-76
2022/04/25 00:47:52;;;;;;;20.45;9.82;;;11.80;95.90;;;;;;5033083;28;20124;-76
2022/04/25 00:50:18;;;;;;;21.98;10.00;;;11.80;95.90;;;;;;5033122;28;20107;-76
2022/04/25 00:52:43;;;;;;;21.38;9.88;;;11.70;96.00;;;;;;5033429;28;20049;-76
2022/04/25 00:55:10;;;;;;;19.85;9.27;;;11.70;96.00;;;;;;5016254;28;20115;-76
2022/04/25 00:57:37;;;;;;;17.15;8.90;;;11.70;96.10;;;;;;5032902;28;20076;-75
2022/04/25 01:00:13;;;;;;;16.15;9.35;;;11.70;96.10;;;;;;5016617;28;20064;-76
2022/04/25 01:02:40;;;;;;;19.65;9.93;;;11.80;96.00;;;;;;5033045;28;20049;-76
2022/04/25 01:05:07;;;;;;;20.75;10.18;;;11.80;96.00;;;;;;5032882;28;20045;-76
2022/04/25 01:07:35;;;;;;;19.77;9.18;;;11.80;96.00;;;;;;5032512;28;20124;-76
2022/04/25 01:10:01;;;;;;;16.80;9.00;;;11.70;96.00;;;;;;5032842;28;20046;-76
2022/04/25 01:12:27;;;;;;;19.13;9.68;;;11.80;95.90;;;;;;5032844;28;20049;-76
2022/04/25 01:15:06;;;;;;;18.48;9.82;;;11.70;96.00;;;;;;5032838;28;20041;-76
2022/04/25 01:17:32;;;;;;;16.67;9.52;;;11.60;96.10;;;;;;5032694;28;20107;-76
2022/04/25 01:19:59;;;;;;;19.30;9.20;;;11.80;96.10;;;;;;5031424;28;20053;-76
2022/04/25 01:22:32;;;;;;;16.85;8.10;;;11.80;95.90;;;;;;5032833;28;20072;-76
2022/04/25 01:27:42;;;;;;;18.52;9.43;;;11.80;95.90;;;;;;5032355;28;20042;-76
2022/04/25 01:30:09;;;;;;;20.05;9.35;;;11.70;95.80;;;;;;5032554;28;20049;-76
2022/04/25 01:32:37;;;;;;;15.00;8.40;;;11.70;95.80;;;;;;5032854;28;20091;-76
2022/04/25 01:35:04;;;;;;;19.58;9.18;;;11.70;95.70;;;;;;5032603;28;20056;-76
2022/04/25 01:37:31;;;;;;;19.08;8.77;;;11.60;95.70;;;;;;5032507;28;20049;-76
2022/04/25 01:39:57;;;;;;;14.40;8.40;;;11.60;95.80;;;;;;5032482;28;20050;-76
2022/04/25 01:42:23;;;;;;;18.33;9.73;;;11.40;95.80;;;;;;5016039;28;20068;-76
2022/04/25 01:44:50;;;;;;;20.10;9.05;;;11.30;95.90;;;;;;5032527;28;20188;-76
2022/04/25 01:47:16;;;;;;;16.42;9.45;;;11.20;96.00;;;;;;5032040;28;20498;-76
2022/04/25 01:49:42;;;;;;;13.90;8.82;;;11.20;96.00;;;;;;5032499;28;20045;-76
2022/04/25 01:52:25;;;;;;;19.67;9.32;;;11.30;96.10;;;;;;5032386;28;20048;-76
2022/04/25 01:54:51;;;;;;;16.83;9.05;;;11.20;96.00;;;;;;5032378;28;20099;-76
2022/04/25 01:57:17;;;;;;;17.80;8.45;;;11.10;96.10;;;;;;5032314;28;20061;-76
2022/04/25 01:59:43;;;;;;;15.10;8.52;;;11.20;96.10;;;;;;5032340;28;20037;-76
2022/04/25 02:02:11;;;;;;;18.65;9.20;;;11.20;96.30;;;;;;5032354;28;20049;-76
2022/04/25 02:04:36;;;;;;;19.33;9.52;;;11.20;96.10;;;;;;5032343;28;20053;-76
2022/04/25 02:07:02;;;;;;;20.50;10.57;;;11.30;96.10;;;;;;5015760;28;20370;-76
2022/04/25 02:09:28;;;;;;;20.23;9.57;;;11.10;96.10;;;;;;5032228;28;20068;-76
2022/04/25 02:11:54;;;;;;;16.95;9.55;;;11.20;96.10;;;;;;5015949;28;20076;-76
2022/04/25 02:14:19;;;;;;;16.90;9.07;;;11.20;96.20;;;;;;5015686;28;20049;-76
2022/04/25 02:16:46;;;;;;;25.77;9.80;;;11.30;96.20;;;;;;5032205;28;20045;-78
2022/04/25 02:19:12;;;;;;;18.08;10.20;;;11.30;96.20;;;;;;5032075;28;20049;-76
2022/04/25 02:21:38;;;;;;;21.75;9.73;;;11.30;96.20;;;;;;5031630;28;20531;-76
2022/04/25 02:24:04;;;;;;;21.70;10.10;;;11.40;96.20;;;;;;5015749;28;20520;-76
2022/04/25 02:26:30;;;;;;;21.85;9.35;;;11.40;96.20;;;;;;5031550;28;20044;-76
2022/04/25 02:28:56;;;;;;;21.95;10.15;;;11.50;96.30;;;;;;5032102;28;20041;-76
2022/04/25 02:31:24;;;;;;;17.75;8.52;;;11.50;96.10;;;;;;5034103;28;20102;-76
2022/04/25 02:33:50;;;;;;;19.30;9.93;;;11.40;96.30;;;;;;5035769;28;20045;-76
2022/04/25 02:36:17;;;;;;;17.77;9.02;;;11.40;96.30;;;;;;5035301;28;20049;-76
2022/04/25 02:38:43;;;;;;;21.05;9.75;;;11.50;96.30;;;;;;5035567;28;20187;-76
2022/04/25 02:41:09;;;;;;;20.38;9.88;;;11.50;96.10;;;;;;5019079;28;20047;-76
2022/04/25 02:43:38;;;;;;;19.52;9.10;;;11.40;96.10;;;;;;5035515;28;20051;-76
2022/04/25 02:46:06;;;;;;;16.20;8.45;;;11.10;96.10;;;;;;5035075;28;20041;-76
2022/04/25 02:48:33;;;;;;;19.67;8.77;;;11.10;96.30;;;;;;5035428;28;20049;-76
2022/04/25 02:50:59;;;;;;;16.15;9.27;;;11.20;96.20;;;;;;5035359;28;20063;-76
2022/04/25 02:53:25;;;;;;;19.50;9.30;;;11.30;96.10;;;;;;5034945;28;20045;-76
2022/04/25 02:55:52;;;;;;;20.67;10.48;;;11.30;95.90;;;;;;5034853;28;20534;-76
2022/04/25 02:58:22;;;;;;;19.65;9.75;;;11.10;95.80;;;;;;5035188;28;20115;-76
2022/04/25 03:00:49;;;;;;;19.92;9.10;;;11.00;95.90;;;;;;5035200;28;20132;-76
2022/04/25 03:03:16;;;;;;;21.20;9.30;;;11.20;95.90;;;;;;5035144;28;20045;-76
2022/04/25 03:05:46;;;;;;;19.58;9.80;;;11.20;95.90;;;;;;5034663;28;20088;-76
2022/04/25 03:08:14;;;;;;;15.95;9.05;;;11.20;95.90;;;;;;5035073;28;20053;-76
2022/04/25 03:10:42;;;;;;;15.30;9.95;;;11.10;95.80;;;;;;5034980;28;20131;-76
2022/04/25 03:13:09;;;;;;;19.20;10.18;;;11.20;95.80;;;;;;5035074;28;20416;-76
2022/04/25 03:15:40;;;;;;;20.63;10.02;;;11.10;95.90;;;;;;5034784;28;20045;-76
2022/04/25 03:18:12;;;;;;;18.85;10.00;;;11.00;95.80;;;;;;5034887;28;20126;-77
2022/04/25 03:20:39;;;;;;;20.02;9.68;;;11.10;95.80;;;;;;5017847;28;20065;-76
2022/04/25 03:23:05;;;;;;;16.83;9.15;;;11.10;95.80;;;;;;5034510;28;20049;-76
2022/04/25 03:25:32;;;;;;;17.00;9.15;;;11.10;95.90;;;;;;5034140;28;20052;-76
2022/04/25 03:27:58;;;;;;;15.15;9.43;;;11.10;95.70;;;;;;5034616;28;20492;-76
2022/04/25 03:30:24;;;;;;;17.50;9.60;;;10.80;95.70;;;;;;5034712;28;20088;-76
2022/04/25 03:32:50;;;;;;;17.70;10.80;;;10.80;95.80;;;;;;5034548;28;20081;-76
2022/04/25 03:35:18;;;;;;;17.63;9.80;;;10.70;96.00;;;;;;5034583;28;20045;-76
2022/04/25 03:37:46;;;;;;;17.55;9.40;;;10.60;96.00;;;;;;5018048;28;20469;-76
2022/04/25 03:40:12;;;;;;;21.52;10.07;;;10.60;96.20;;;;;;5034433;28;20131;-76
2022/04/25 03:42:39;;;;;;;16.83;10.20;;;10.80;96.00;;;;;;5033549;28;20053;-76
2022/04/25 03:45:06;;;;;;;18.38;9.13;;;10.90;96.10;;;;;;5034298;28;20084;-76
2022/04/25 03:47:32;;;;;;;14.07;9.43;;;11.00;95.90;;;;;;5033992;28;20404;-76
2022/04/25 03:49:58;;;;;;;18.48;9.13;;;11.00;95.90;;;;;;5034430;28;20425;-76
2022/04/25 03:52:24;;;;;;;18.13;8.60;;;11.00;95.80;;;;;;5034303;28;20092;-76
2022/04/25 03:57:34;;;;;;;18.35;9.90;;;10.80;95.90;;;;;;5034186;28;20061;-76
2022/04/25 04:00:00;;;;;;;18.92;8.77;;;10.80;95.90;;;;;;5034055;28;20388;-76
2022/04/25 04:02:26;;;;;;;13.55;8.00;;;10.60;96.00;;;;;;5017558;28;20057;-75
2022/04/25 04:04:51;;;;;;;15.35;8.20;;;10.80;96.10;;;;;;5034135;28;20392;-76
2022/04/25 04:07:17;;;;;;;16.27;8.35;;;10.90;96.10;;;;;;5033676;28;20103;-75
2022/04/25 04:09:45;;;;;;;13.63;8.30;;;10.90;96.10;;;;;;5017479;28;20049;-76
2022/04/25 04:12:19;;;;;;;14.82;8.65;;;10.90;96.10;;;;;;5033737;28;20057;-76
2022/04/25 04:14:46;;;;;;;15.00;8.70;;;11.00;96.10;;;;;;5034046;28;20045;-76
2022/04/25 04:17:12;;;;;;;17.98;9.20;;;11.10;96.00;;;;;;5033738;28;20503;-75
2022/04/25 04:19:38;;;;;;;14.98;8.43;;;11.00;95.90;;;;;;5033722;28;20085;-76
2022/04/25 04:22:05;;;;;;;18.90;9.32;;;10.80;96.00;;;;;;5033546;28;20544;-75
2022/04/25 04:24:32;;;;;;;17.63;10.13;;;10.80;96.10;;;;;;5033090;28;20468;-76
2022/04/25 04:27:02;;;;;;;16.10;9.02;;;10.90;96.10;;;;;;5033338;28;20049;-76
2022/04/25 04:29:32;;;;;;;21.63;9.20;;;11.00;96.10;;;;;;5033376;28;20058;-76
2022/04/25 04:32:07;;;;;;;19.15;8.98;;;11.00;95.90;;;;;;5033617;28;20045;-76
2022/04/25 04:34:34;;;;;;;17.70;9.00;;;10.80;96.10;;;;;;5033781;28;20092;-76
2022/04/25 04:37:01;;;;;;;16.73;8.98;;;10.80;96.10;;;;;;5033519;28;20072;-76
2022/04/25 04:39:27;;;;;;;20.00;9.70;;;10.90;96.20;;;;;;5033443;28;20042;-76
2022/04/25 04:41:53;;;;;;;17.27;9.45;;;10.90;96.20;;;;;;5033156;28;20091;-76
2022/04/25 04:44:19;;;;;;;16.73;8.50;;;11.00;96.00;;;;;;5033368;28;20045;-76
2022/04/25 04:46:44;;;;;;;17.80;8.77;;;11.20;96.00;;;;;;5032910;28;20068;-76
2022/04/25 04:49:10;;;;;;;15.45;8.75;;;11.00;96.00;;;;;;5033208;28;20440;-76
2022/04/25 04:51:36;;;;;;;18.50;9.90;;;11.00;96.00;;;;;;5033195;28;20133;-76
2022/04/25 04:54:02;;;;;;;16.85;7.88;;;10.90;95.80;;;;;;5033015;28;20103;-76
2022/04/25 04:56:32;;;;;;;17.20;8.68;;;10.80;95.80;;;;;;5032692;28;20095;-75
2022/04/25 04:59:02;;;;;;;19.23;8.15;;;10.90;95.90;;;;;;5033018;28;20106;-76
2022/04/25 05:01:28;;;;;;;20.52;9.43;;;10.90;95.90;;;;;;5033021;28;20132;-76
2022/04/25 05:03:58;;;;;;;22.40;9.75;;;10.80;95.90;;;;;;5032992;28;20137;-76
2022/04/25 05:06:28;;;;;;;17.35;8.63;;;10.90;95.90;;;;;;5033217;28;20563;-76
2022/04/25 05:08:54;;;;;;;16.88;8.93;;;10.70;95.80;;;;;;5032882;28;20136;-75
2022/04/25 05:11:20;;;;;;;18.65;8.32;;;10.60;95.90;;;;;;5032631;28;20057;-76
2022/04/25 05:13:47;;;;;;;16.20;8.05;;;10.60;96.00;;;;;;5032858;28;20041;-76
2022/04/25 05:16:12;;;;;;;18.58;8.35;;;10.60;96.00;;;;;;5032747;28;20048;-76
2022/04/25 05:18:38;;;;;;;20.38;8.90;;;10.50;95.90;;;;;;5016359;28;20467;-76
2022/04/25 05:21:05;;;;;;;13.98;8.07;;;10.50;96.00;;;;;;5032229;28;20060;-76
2022/04/25 05:23:31;;;;;;;15.38;8.77;;;10.50;96.00;;;;;;5032790;28;20048;-75
2022/04/25 05:25:58;;;;;;;18.85;9.40;;;10.50;96.00;;;;;;5032108;28;20057;-76
2022/04/25 05:28:29;;;;;;;15.35;9.88;;;10.50;96.00;;;;;;5032547;28;20118;-76
2022/04/25 05:30:55;;;;;;;18.88;9.88;;;10.50;96.10;;;;;;5032869;28;20080;-76
2022/04/25 05:33:21;;;;;;;19.08;9.35;;;10.60;96.10;;;;;;5032613;28;20480;-75
2022/04/25 05:35:46;;;;;;;19.58;8.38;;;10.60;96.10;;;;;;5032665;28;20095;-76
2022/04/25 05:38:12;;;;;;;13.32;7.97;;;10.50;96.00;;;;;;5032338;28;20046;-76
2022/04/25 05:40:40;;;;;;;14.88;8.15;;;10.50;96.00;;;;;;5032882;28;20399;-76
2022/04/25 05:43:06;;;;;;;18.63;8.88;;;10.50;96.00;;;;;;5032537;28;20179;-76
2022/04/25 05:45:33;;;;;;;13.10;8.65;;;10.50;96.00;;;;;;5032373;28;20052;-75
2022/04/25 05:47:59;;;;;;;15.98;8.80;;;10.50;96.10;;;;;;5032536;28;20056;-76
2022/04/25 05:53:11;;;;;;;14.15;8.55;;;10.50;96.20;;;;;;5032486;28;20061;-76
2022/04/25 05:55:37;;;;;;;16.55;8.25;;;10.50;96.20;;;;;;5031976;28;20511;-75
2022/04/25 05:58:06;;;;;;;19.83;9.50;;;10.50;96.30;;;;;;5032729;28;20053;-75
2022/04/25 06:00:33;;;;;;;14.35;8.05;;;10.50;96.30;;;;;;5032048;28;20053;-76
2022/04/25 06:02:59;;;;;;;17.00;7.72;;;10.60;96.40;;;;;;5032145;28;20428;-76
2022/04/25 06:05:26;;;;;;;16.88;8.10;;;10.70;96.30;;;;;;5032561;28;20049;-75
2022/04/25 06:07:52;;;;;;;20.48;8.98;;;10.80;96.10;;;;;;5035669;28;20117;-74
2022/04/25 06:10:20;;;;;;;7.88;4.88;;;10.90;96.20;;;;;;5035917;28;20049;-81
2022/04/25 06:12:48;;;;;;;13.48;7.55;;;11.00;96.40;;;;;;5035928;28;20046;-76
2022/04/25 06:15:16;;;;;;;15.25;7.40;;;11.40;96.00;;;;;;5052306;28;20115;-72
2022/04/25 06:17:42;;;;;;;14.77;7.82;;;11.30;95.80;;;;;;5035792;28;20076;-77
2022/04/25 06:20:09;;;;;;;15.82;8.15;;;11.20;96.00;;;;;;5035879;28;20481;-72
2022/04/25 06:22:36;;;;;;;19.52;9.02;;;11.30;96.00;;;;;;5036641;28;20500;-76
2022/04/25 06:25:03;;;;;;;16.33;7.75;;;11.30;96.00;;;;;;5035376;28;20053;-75
2022/04/25 06:27:29;;;;;;;20.27;8.85;;;11.30;96.00;;;;;;5035754;28;20046;-75
2022/04/25 06:29:56;;;;;;;20.70;8.57;;;11.30;95.90;;;;;;5035729;28;20068;-77
2022/04/25 06:32:22;;;;;;;17.90;8.65;;;11.10;95.90;;;;;;5035746;28;20119;-76
2022/04/25 06:34:48;;;;;;;21.67;9.27;;;10.90;96.10;;;;;;5035655;28;20481;-75
2022/04/25 06:37:13;;;;;;;16.38;8.98;;;10.90;96.10;;;;;;5035466;28;20134;-75
2022/04/25 06:39:39;;;;;;;15.60;8.63;;;11.00;96.10;;;;;;5035597;28;20056;-76
2022/04/25 06:42:05;;;;;;;20.60;9.30;;;11.00;96.10;;;;;;5035537;28;20081;-76
2022/04/25 06:44:31;;;;;;;17.77;8.85;;;10.90;96.00;;;;;;5035524;28;20060;-76
2022/04/25 06:46:58;;;;;;;22.02;9.35;;;10.80;96.00;;;;;;5035325;28;20050;-75
2022/04/25 06:49:24;;;;;;;18.42;9.43;;;10.70;96.10;;;;;;5035458;28;20058;-76
2022/04/25 06:51:52;;;;;;;13.35;8.27;;;10.80;96.20;;;;;;5035085;28;20053;-76
2022/04/25 06:54:19;;;;;;;15.32;9.48;;;10.60;96.20;;;;;;5035682;28;20075;-75
2022/04/25 06:56:45;;;;;;;15.32;8.43;;;10.70;96.10;;;;;;5034777;28;20519;-70
2022/04/25 06:59:11;;;;;;;13.55;8.90;;;10.50;96.20;;;;;;5035323;28;20465;-70
2022/04/25 07:01:39;;;;;;;19.15;9.50;;;10.60;96.40;;;;;;5038076;28;20053;-75
2022/04/25 07:04:06;;;;;;;14.65;8.20;;;10.60;96.30;;;;;;5040665;28;20053;-76
2022/04/25 07:06:32;;;;;;;19.52;8.57;;;10.70;96.20;;;;;;5037713;28;20041;-72
2022/04/25 07:08:58;;;;;;;16.60;8.70;;;10.80;96.30;;;;;;5035055;28;20104;-72
2022/04/25 07:11:23;;;;;;;21.45;8.77;;;10.90;96.20;;;;;;5035070;28;20429;-73
2022/04/25 07:13:49;;;;;;;15.73;8.10;;;10.90;96.00;;;;;;5034572;28;20481;-73
2022/04/25 07:16:15;;;;;;;17.75;9.10;;;10.90;96.10;;;;;;5034618;28;20136;-74
2022/04/25 07:18:41;;;;;;;17.17;8.55;;;10.90;96.10;;;;;;5033930;28;20103;-74
2022/04/25 07:28:48;;;;;;;17.80;8.25;;;10.80;96.10;;;;;;5034703;28;20061;-73
2022/04/25 07:29:24;;;;;;;17.75;8.77;;;10.90;96.30;;;;;;5034448;28;20106;-74
2022/04/25 07:31:51;;;;;;;15.85;8.48;;;11.10;96.30;;;;;;5050995;28;20048;-74
2022/04/25 07:34:19;;;;;;;21.00;9.43;;;11.20;96.10;;;;;;5034588;28;20497;-75
2022/04/25 07:36:45;;;;;;;22.02;9.27;;;11.30;96.10;;;;;;5034542;28;20403;-76
2022/04/25 07:39:10;;;;;;;22.75;10.00;;;11.20;96.00;;;;;;5035920;28;20120;-75
2022/04/25 07:41:36;;;;;;;23.85;10.40;;;10.90;96.30;;;;;;5050962;28;20080;-75
2022/04/25 07:44:02;;;;;;;23.88;10.63;;;10.90;96.50;;;;;;5034439;28;20112;-75
2022/04/25 07:46:29;;;;;;;18.23;10.77;;;11.00;96.40;;;;;;5034291;28;20128;-75
2022/04/25 07:48:55;;;;;;;20.73;10.40;;;11.00;96.20;;;;;;5034448;28;20057;-75
2022/04/25 07:51:21;;;;;;;20.30;10.55;;;11.10;96.40;;;;;;5034262;28;20050;-76
2022/04/25 07:53:47;;;;;;;19.08;10.98;;;11.10;96.50;;;;;;5034294;28;20059;-76
2022/04/25 07:56:12;;;;;;;20.27;10.90;;;11.10;96.30;;;;;;5050127;28;20091;-76
2022/04/25 07:58:38;;;;;;;20.25;11.32;;;11.10;96.30;;;;;;5035184;28;20076;-76
2022/04/25 08:01:04;;;;;;;23.02;10.65;;;11.20;96.30;;;;;;5034946;28;20060;-76
2022/04/25 08:03:30;;;;;;;20.20;10.43;;;11.40;96.30;;;;;;5017830;28;20092;-76
2022/04/25 08:05:55;;;;;;;17.67;9.75;;;11.30;96.10;;;;;;5033890;28;20476;-78
2022/04/25 08:08:22;;;;;;;19.40;9.63;;;11.20;96.20;;;;;;5033927;28;20099;-76
2022/04/25 08:10:47;;;;;;;17.90;10.05;;;11.20;96.10;;;;;;5017537;28;20401;-76
2022/04/25 08:18:41;;;;;;;15.85;7.90;;;11.10;96.20;;;;;;5033723;28;20060;-73
2022/04/25 08:21:07;;;;;;;12.77;7.07;;;11.00;96.10;;;;;;5034281;28;20053;-73
2022/04/25 08:23:33;;;;;;;13.65;7.85;;;11.10;96.30;;;;;;5034290;28;20053;-73
2022/04/25 08:25:58;;;;;;;14.45;6.82;;;11.30;96.40;;;;;;5016629;28;20103;-72
2022/04/25 08:28:25;;;;;;;12.52;6.45;;;11.40;96.20;;;;;;5032903;28;20060;-72
2022/04/25 08:30:52;;;;;;;18.25;6.30;;;11.40;95.90;;;;;;5034452;28;20122;-73
2022/04/25 08:33:19;;;;;;;11.40;5.22;;;11.20;96.00;;;;;;5033449;28;20057;-73
2022/04/25 08:35:45;;;;;;;15.57;5.82;;;11.20;96.20;;;;;;5033406;28;20053;-72
2022/04/25 08:38:11;;;;;;;15.93;6.07;;;11.30;96.40;;;;;;5033535;28;20057;-72
2022/04/25 08:40:39;;;;;;;12.45;4.93;;;11.30;96.20;;;;;;5017256;28;20396;-72
2022/04/25 08:43:06;;;;;;;12.45;5.13;;;11.40;95.90;;;;;;5033326;28;20439;-72
2022/04/25 08:45:32;;;;;;;13.18;5.18;;;11.30;96.00;;;;;;5033317;28;20459;-70
2022/04/25 08:47:59;;;;;;;11.48;5.40;;;11.40;95.90;;;;;;5032646;28;20136;-77
2022/04/25 08:50:30;;;;;;;11.48;4.97;;;11.40;95.60;;;;;;5033183;28;20085;-75
2022/04/25 08:52:57;;;;;;;9.45;5.05;;;11.20;95.50;;;;;;5033611;28;20049;-75
2022/04/25 08:55:23;;;;;;;10.23;4.85;;;11.00;95.80;;;;;;5032694;28;20136;-79
2022/04/25 08:57:51;;;;;;;10.35;4.50;;;11.10;95.90;;;;;;5031985;28;20484;-75
2022/04/25 09:00:17;;;;;;;12.90;5.28;;;11.20;95.80;;;;;;5031947;28;20116;-75
2022/04/25 09:02:49;;;;;;;9.20;4.68;;;11.30;95.80;;;;;;5032318;28;20037;-79
2022/04/25 09:05:15;;;;;;;11.35;4.47;;;11.30;95.70;;;;;;5032675;28;20052;-83
2022/04/25 09:07:41;;;;;;;15.00;5.13;;;11.00;95.60;;;;;;5032312;28;20370;-83
2022/04/25 09:10:09;;;;;;;9.40;4.15;;;10.80;95.90;;;;;;5032406;28;20084;-83
2022/04/25 09:12:37;;;;;;;8.55;3.97;;;10.70;96.00;;;;;;5032466;28;20061;-83
2022/04/25 09:15:08;;;;;;;13.40;4.20;;;10.70;96.20;;;;;;5032791;28;20053;-82
2022/04/25 09:17:35;;;;;;;11.15;4.45;;;10.80;95.90;;;;;;5032889;28;20057;-82
2022/04/25 09:20:01;;;;;;;12.52;4.60;;;11.00;96.00;;;;;;5032786;28;20088;-83
2022/04/25 09:22:36;;;;;;;8.52;4.10;;;11.30;96.00;;;;;;5032371;28;20084;-82
2022/04/25 09:25:15;;;;;;;15.77;4.57;;;11.50;95.90;;;;;;5032526;28;20057;-83
2022/04/25 09:27:41;;;;;;;10.32;4.50;;;11.10;95.90;;;;;;5032415;28;20399;-83
2022/04/25 09:30:18;;;;;;;8.93;4.50;;;11.40;95.80;;;;;;5032900;28;20050;-82
2022/04/25 09:32:46;;;;;;;9.48;4.38;;;11.30;95.90;;;;;;5032375;28;20060;-83
2022/04/25 09:35:37;;;;;;;14.18;5.00;;;11.20;96.00;;;;;;5032613;28;20049;-82
2022/04/25 09:38:04;;;;;;;15.55;5.55;;;10.90;96.10;;;;;;5032679;28;20049;-82
2022/04/25 09:40:36;;;;;;;13.43;4.90;;;11.00;96.10;;;;;;5033497;28;20392;-83
2022/04/25 09:43:06;;;;;;;9.98;5.05;;;11.30;96.20;;;;;;5036942;28;20187;-83
2022/04/25 09:45:34;;;;;;;13.68;4.88;;;11.20;96.00;;;;;;5036918;28;20503;-84
2022/04/25 09:48:00;;;;;;;9.90;4.80;;;11.30;95.90;;;;;;5035942;28;20042;-84
2022/04/25 09:50:28;;;;;;;9.27;4.70;;;11.30;96.10;;;;;;5036501;28;20400;-83
2022/04/25 09:53:02;;;;;;;9.20;4.10;;;11.30;96.10;;;;;;5036544;28;20392;-84
2022/04/25 09:55:34;;;;;;;9.05;4.68;;;11.70;96.10;;;;;;5036173;28;20092;-84
2022/04/25 09:58:18;;;;;;;10.23;4.50;;;11.90;96.00;;;;;;5036366;28;20046;-84
2022/04/25 10:00:44;;;;;;;10.38;4.13;;;12.00;96.00;;;;;;5036402;28;20044;-83
2022/04/25 10:03:10;;;;;;;10.02;4.82;;;12.00;95.90;;;;;;5036309;28;20060;-83
2022/04/25 10:05:39;;;;;;;8.65;4.28;;;11.90;95.80;;;;;;5036241;28;20057;-83
2022/04/25 10:08:06;;;;;;;34.35;5.80;;;11.80;95.90;;;;;;5036194;28;20493;-83
2022/04/25 10:10:33;;;;;;;10.30;4.50;;;11.70;96.00;;;;;;5036144;28;20050;-83
2022/04/25 10:13:00;;;;;;;12.15;4.88;;;11.80;96.00;;;;;;5036124;28;20056;-76
2022/04/25 10:15:26;;;;;;;8.98;4.20;;;11.70;96.20;;;;;;5036049;28;20045;-77
2022/04/25 10:17:54;;;;;;;9.23;4.10;;;12.10;96.20;;;;;;5036045;28;20441;-77
2022/04/25 10:20:19;;;;;;;7.72;4.30;;;12.30;95.60;;;;;;5035493;28;20053;-76
2022/04/25 10:22:46;;;;;;;12.70;4.20;;;12.60;95.60;;;;;;5035977;28;20060;-77
2022/04/25 10:25:12;;;;;;;9.70;4.35;;;12.90;95.60;;;;;;5035538;28;20497;-77
2022/04/25 10:27:43;;;;;;;7.75;4.25;;;13.00;95.20;;;;;;5035526;28;20106;-77
2022/04/25 10:30:20;;;;;;;9.93;4.32;;;13.10;95.30;;;;;;5035831;28;20057;-77
2022/04/25 10:32:46;;;;;;;11.23;4.45;;;13.10;95.20;;;;;;5036850;28;20399;-77
2022/04/25 10:35:31;;;;;;;9.88;4.40;;;12.90;95.10;;;;;;5036718;28;20049;-77
2022/04/25 10:37:57;;;;;;;9.27;4.63;;;12.80;95.40;;;;;;5035850;28;20057;-77
2022/04/25 10:46:13;;;;;;;10.55;3.55;;;13.10;95.60;;;;;;5035496;28;20053;-77
2022/04/25 10:49:05;;;;;;;5.28;3.22;;;13.20;95.20;;;;;;5035487;28;20045;-77
2022/04/25 10:51:39;;;;;;;7.80;4.18;;;13.30;95.30;;;;;;5035091;28;20050;-77
2022/04/25 10:54:05;;;;;;;8.35;4.13;;;13.40;95.30;;;;;;5035382;28;20536;-77
2022/04/25 10:56:32;;;;;;;8.95;3.95;;;13.50;95.30;;;;;;5034935;28;20492;-77
2022/04/25 10:59:20;;;;;;;10.75;4.43;;;13.70;95.20;;;;;;5035366;28;20099;-77
2022/04/25 11:01:45;;;;;;;7.97;4.30;;;13.70;95.00;;;;;;5035344;28;20045;-77
2022/04/25 11:04:13;;;;;;;8.45;4.10;;;13.70;95.30;;;;;;5034770;28;20048;-84
2022/04/25 11:06:39;;;;;;;9.25;4.25;;;13.70;94.90;;;;;;5035239;28;20045;-84
2022/04/25 11:09:05;;;;;;;14.07;4.82;;;13.50;95.10;;;;;;5035041;28;20052;-76
2022/04/25 11:11:47;;;;;;;11.07;5.03;;;13.70;95.50;;;;;;5035025;28;20128;-77
2022/04/25 11:14:14;;;;;;;10.85;4.63;;;14.10;95.00;;;;;;5037058;28;20481;-76
2022/04/25 11:16:40;;;;;;;9.50;4.63;;;14.20;95.10;;;;;;5051525;28;20373;-76
2022/04/25 11:19:17;;;;;;;11.52;4.43;;;14.30;94.90;;;;;;5034947;28;20465;-77
2022/04/25 11:21:55;;;;;;;11.07;4.65;;;14.30;95.40;;;;;;5034264;28;20064;-77
2022/04/25 11:24:33;;;;;;;8.27;4.90;;;14.20;94.50;;;;;;5035879;28;20065;-77
2022/04/25 11:27:01;;;;;;;10.45;4.78;;;14.10;95.00;;;;;;5034302;28;20053;-77
2022/04/25 11:29:27;;;;;;;8.40;4.57;;;14.30;94.90;;;;;;5034861;28;20061;-77
2022/04/25 11:32:26;;;;;;;8.43;4.28;;;14.40;94.90;;;;;;5034771;28;20099;-77
2022/04/25 11:34:52;;;;;;;9.13;4.32;;;14.80;95.00;;;;;;5034690;28;20444;-77
2022/04/25 11:37:22;;;;;;;7.28;4.70;;;15.00;95.10;;;;;;5034823;28;20408;-77
2022/04/25 11:39:59;;;;;;;7.68;4.05;;;15.10;94.60;;;;;;5034268;28;20408;-77
2022/04/25 11:42:29;;;;;;;9.32;4.55;;;15.20;94.70;;;;;;5034604;28;20107;-77
2022/04/25 11:44:56;;;;;;;11.07;5.20;;;15.00;94.70;;;;;;5034453;28;20128;-77
2022/04/25 11:47:22;;;;;;;10.05;4.65;;;15.00;94.70;;;;;;5034400;28;20411;-77
2022/04/25 11:49:55;;;;;;;7.35;4.70;;;15.00;94.70;;;;;;5034386;28;20488;-77
2022/04/25 11:52:22;;;;;;;7.40;4.50;;;15.10;94.50;;;;;;5034346;28;20045;-77
2022/04/25 11:54:49;;;;;;;5.32;4.10;;;15.00;94.70;;;;;;5035395;28;20049;-77
2022/04/25 11:57:14;;;;;;;9.63;4.10;;;15.00;94.60;;;;;;5033799;28;20571;-81
2022/04/25 11:59:40;;;;;;;9.15;4.82;;;15.00;94.40;;;;;;5034078;28;20124;-76
2022/04/25 12:02:07;;;;;;;9.05;4.07;;;14.80;94.40;;;;;;5035128;28;20049;-76
2022/04/25 12:04:35;;;;;;;8.43;4.22;;;14.70;94.50;;;;;;5033280;28;20075;-77
2022/04/25 12:07:06;;;;;;;8.35;4.35;;;14.70;94.30;;;;;;5033926;28;20477;-76
2022/04/25 12:15:42;;;;;;;10.88;5.07;;;14.90;94.70;;;;;;4990807;28;20053;-77
2022/04/25 12:18:17;;;;;;;11.90;5.68;;;14.90;94.60;;;;;;5033795;28;20053;-77
2022/04/25 12:20:47;;;;;;;11.40;4.67;;;14.80;94.50;;;;;;5033794;28;20048;-77
2022/04/25 12:23:28;;;;;;;9.68;5.18;;;14.70;94.60;;;;;;5033212;28;20547;-76
2022/04/25 12:25:54;;;;;;;8.60;5.28;;;14.50;94.90;;;;;;5034377;28;20049;-76
2022/04/25 12:28:22;;;;;;;10.02;5.03;;;14.50;95.00;;;;;;5033575;28;20053;-77
2022/04/25 12:31:03;;;;;;;12.02;5.63;;;14.60;94.90;;;;;;5033556;28;20053;-77
2022/04/25 12:33:32;;;;;;;9.65;5.20;;;14.80;94.60;;;;;;5034627;28;20053;-77
2022/04/25 12:36:29;;;;;;;8.38;5.07;;;14.80;94.80;;;;;;5033526;28;20049;-77
2022/04/25 12:39:00;;;;;;;10.70;4.97;;;14.90;94.70;;;;;;5033650;28;20046;-77
2022/04/25 12:41:37;;;;;;;9.63;5.22;;;14.80;94.50;;;;;;5034300;28;20128;-77
2022/04/25 12:44:13;;;;;;;11.57;4.65;;;14.70;94.20;;;;;;5033345;28;20547;-77
2022/04/25 12:46:40;;;;;;;7.40;4.53;;;14.70;94.50;;;;;;5033382;28;20463;-77
2022/04/25 12:49:13;;;;;;;8.10;4.95;;;14.80;94.60;;;;;;5033219;28;20362;-78
2022/04/25 12:51:46;;;;;;;7.57;4.63;;;14.90;95.10;;;;;;5034166;28;20053;-77
2022/04/25 12:54:37;;;;;;;8.13;4.85;;;15.20;95.00;;;;;;5033236;28;20053;-77
2022/04/25 12:57:15;;;;;;;9.40;4.90;;;15.20;94.70;;;;;;5032522;28;20436;-77
2022/04/25 13:00:02;;;;;;;13.73;5.38;;;15.30;94.90;;;;;;5033171;28;20059;-77
2022/04/25 13:02:32;;;;;;;9.77;5.20;;;15.10;94.80;;;;;;5032164;28;20562;-77
2022/04/25 13:05:05;;;;;;;8.60;4.85;;;15.30;95.00;;;;;;5032999;28;20067;-77
2022/04/25 13:07:33;;;;;;;9.43;5.40;;;15.20;94.90;;;;;;5032640;28;20484;-76
2022/04/25 13:10:05;;;;;;;11.85;5.45;;;15.00;94.80;;;;;;5032848;28;20057;-76
2022/04/25 13:12:39;;;;;;;7.78;5.10;;;14.80;95.20;;;;;;5032852;28;20050;-77
2022/04/25 13:15:13;;;;;;;8.85;5.63;;;14.90;95.00;;;;;;5032777;28;20539;-77